createdAt,value
2022-07-28T00:00:12.396Z,936.27
2022-07-28T00:01:12.417Z,936.24
2022-07-28T00:02:12.491Z,936.20
2022-07-28T00:03:12.465Z,936.21
2022-07-28T00:04:12.794Z,936.25
2022-07-28T00:05:12.472Z,936.24
2022-07-28T00:06:12.485Z,936.25
2022-07-28T00:07:12.497Z,936.23
2022-07-28T00:08:12.511Z,936.24
2022-07-28T00:09:12.525Z,936.24
2022-07-28T00:10:12.546Z,936.24
2022-07-28T00:11:12.555Z,936.23
2022-07-28T00:12:12.569Z,936.27
2022-07-28T00:13:12.586Z,936.27
2022-07-28T00:14:12.966Z,936.26
2022-07-28T00:15:12.613Z,936.32
2022-07-28T00:16:12.678Z,936.31
2022-07-28T00:17:12.641Z,936.34
2022-07-28T00:18:12.655Z,936.32
2022-07-28T00:19:12.671Z,936.32
2022-07-28T00:20:12.695Z,936.30
2022-07-28T00:21:12.700Z,936.35
2022-07-28T00:22:12.714Z,936.31
2022-07-28T00:23:12.727Z,936.32
2022-07-28T00:24:13.051Z,936.31
2022-07-28T00:25:12.761Z,936.34
2022-07-28T00:26:12.771Z,936.34
2022-07-28T00:27:12.785Z,936.36
2022-07-28T00:28:12.798Z,936.35
2022-07-28T00:29:12.814Z,936.37
2022-07-28T00:30:12.826Z,936.34
2022-07-28T00:31:13.447Z,936.34
2022-07-28T00:32:12.859Z,936.35
2022-07-28T00:33:12.872Z,936.32
2022-07-28T00:34:13.188Z,936.36
2022-07-28T00:35:12.900Z,936.33
2022-07-28T00:36:12.917Z,936.35
2022-07-28T00:37:14.402Z,936.33
2022-07-28T00:38:12.941Z,936.29
2022-07-28T00:39:12.957Z,936.34
2022-07-28T00:40:12.971Z,936.31
2022-07-28T00:41:13.000Z,936.29
2022-07-28T00:42:13.000Z,936.29
2022-07-28T00:43:13.014Z,936.29
2022-07-28T00:44:13.388Z,936.25
2022-07-28T00:45:13.076Z,936.24
2022-07-28T00:46:13.096Z,936.20
2022-07-28T00:47:13.077Z,936.21
2022-07-28T00:48:13.085Z,936.21
2022-07-28T00:49:13.140Z,936.21
2022-07-28T00:50:13.113Z,936.21
2022-07-28T00:51:13.128Z,936.24
2022-07-28T00:52:13.142Z,936.22
2022-07-28T00:53:13.158Z,936.24
2022-07-28T00:54:13.450Z,936.22
2022-07-28T00:55:13.187Z,936.23
2022-07-28T00:56:13.201Z,936.23
2022-07-28T00:57:13.215Z,936.27
2022-07-28T00:58:13.229Z,936.22
2022-07-28T00:59:13.242Z,936.20
2022-07-28T01:00:13.261Z,936.19
2022-07-28T01:01:13.272Z,936.19
2022-07-28T01:02:13.446Z,936.21
2022-07-28T01:03:13.350Z,936.18
2022-07-28T01:04:13.738Z,936.20
2022-07-28T01:05:13.331Z,936.22
2022-07-28T01:06:13.358Z,936.21
2022-07-28T01:07:13.358Z,936.22
2022-07-28T01:08:13.372Z,936.26
2022-07-28T01:09:13.427Z,936.27
2022-07-28T01:10:13.401Z,936.27
2022-07-28T01:11:13.415Z,936.27
2022-07-28T01:12:13.429Z,936.27
2022-07-28T01:13:13.444Z,936.25
2022-07-28T01:14:13.748Z,936.23
2022-07-28T01:15:13.471Z,936.24
2022-07-28T01:16:13.527Z,936.24
2022-07-28T01:17:13.502Z,936.23
2022-07-28T01:18:13.514Z,936.25
2022-07-28T01:19:13.530Z,936.22
2022-07-28T01:20:13.544Z,936.18
2022-07-28T01:21:13.559Z,936.19
2022-07-28T01:22:13.570Z,936.17
2022-07-28T01:23:13.585Z,936.17
2022-07-28T01:24:13.955Z,936.15
2022-07-28T01:25:13.613Z,936.13
2022-07-28T01:26:13.629Z,936.13
2022-07-28T01:27:13.642Z,936.11
2022-07-28T01:28:13.660Z,936.10
2022-07-28T01:29:13.673Z,936.09
2022-07-28T01:30:13.684Z,936.07
2022-07-28T01:31:13.748Z,936.05
2022-07-28T01:32:13.714Z,936.07
2022-07-28T01:33:13.728Z,936.03
2022-07-28T01:34:14.139Z,936.04
2022-07-28T01:35:13.756Z,936.09
2022-07-28T01:36:13.771Z,936.07
2022-07-28T01:37:13.786Z,936.10
2022-07-28T01:38:13.805Z,936.09
2022-07-28T01:39:13.814Z,936.01
2022-07-28T01:40:13.827Z,936.00
2022-07-28T01:41:13.843Z,936.01
2022-07-28T01:42:13.860Z,935.99
2022-07-28T01:43:13.873Z,935.99
2022-07-28T01:44:14.219Z,935.96
2022-07-28T01:45:13.898Z,935.93
2022-07-28T01:46:13.957Z,935.90
2022-07-28T01:47:13.930Z,935.93
2022-07-28T01:48:13.942Z,935.94
2022-07-28T01:49:14.009Z,935.94
2022-07-28T01:50:13.977Z,935.92
2022-07-28T01:51:13.985Z,935.89
2022-07-28T01:52:14.001Z,935.89
2022-07-28T01:53:14.012Z,935.90
2022-07-28T01:54:14.396Z,935.88
2022-07-28T01:55:14.043Z,935.90
2022-07-28T01:56:14.056Z,935.91
2022-07-28T01:57:14.069Z,935.92
2022-07-28T01:58:14.085Z,935.92
2022-07-28T01:59:14.097Z,935.92
2022-07-28T02:00:14.110Z,935.90
2022-07-28T02:01:14.178Z,935.88
2022-07-28T02:02:14.141Z,935.90
2022-07-28T02:03:14.155Z,935.88
2022-07-28T02:04:14.491Z,935.89
2022-07-28T02:05:14.289Z,935.87
2022-07-28T02:06:14.196Z,935.89
2022-07-28T02:07:14.213Z,935.88
2022-07-28T02:08:14.227Z,935.90
2022-07-28T02:09:14.243Z,935.88
2022-07-28T02:10:14.253Z,935.87
2022-07-28T02:11:14.269Z,935.91
2022-07-28T02:12:14.282Z,935.89
2022-07-28T02:13:14.297Z,935.87
2022-07-28T02:14:14.761Z,935.89
2022-07-28T02:15:14.325Z,935.87
2022-07-28T02:16:14.395Z,935.86
2022-07-28T02:17:14.353Z,935.80
2022-07-28T02:18:14.368Z,935.82
2022-07-28T02:19:14.383Z,935.78
2022-07-28T02:20:14.397Z,935.79
2022-07-28T02:21:14.409Z,935.79
2022-07-28T02:22:14.423Z,935.78
2022-07-28T02:23:14.440Z,935.82
2022-07-28T02:24:14.785Z,935.79
2022-07-28T02:25:14.470Z,935.78
2022-07-28T02:26:14.485Z,935.78
2022-07-28T02:27:14.494Z,935.82
2022-07-28T02:28:14.509Z,935.86
2022-07-28T02:29:33.628Z,935.83
2022-07-28T02:30:14.536Z,935.78
2022-07-28T02:31:14.603Z,935.77
2022-07-28T02:32:24.101Z,935.80
2022-07-28T02:33:14.580Z,935.85
2022-07-28T02:34:14.859Z,935.91
2022-07-28T02:35:14.607Z,935.83
2022-07-28T02:36:16.203Z,935.82
2022-07-28T02:37:14.637Z,935.81
2022-07-28T02:38:14.650Z,935.80
2022-07-28T02:39:14.666Z,935.83
2022-07-28T02:40:14.682Z,935.88
2022-07-28T02:41:14.695Z,935.85
2022-07-28T02:42:14.708Z,935.84
2022-07-28T02:43:14.720Z,935.83
2022-07-28T02:44:15.253Z,935.83
2022-07-28T02:45:14.748Z,935.85
2022-07-28T02:46:14.849Z,935.83
2022-07-28T02:47:14.817Z,935.78
2022-07-28T02:48:14.791Z,935.80
2022-07-28T02:49:14.852Z,935.77
2022-07-28T02:50:14.823Z,935.78
2022-07-28T02:51:14.833Z,935.79
2022-07-28T02:52:14.851Z,935.76
2022-07-28T02:53:16.218Z,935.77
2022-07-28T02:54:15.174Z,935.75
2022-07-28T02:55:14.892Z,935.75
2022-07-28T02:56:14.907Z,935.76
2022-07-28T02:57:14.919Z,935.78
2022-07-28T02:58:14.934Z,935.77
2022-07-28T02:59:14.946Z,935.76
2022-07-28T03:00:14.965Z,935.73
2022-07-28T03:01:15.053Z,935.70
2022-07-28T03:02:14.987Z,935.77
2022-07-28T03:03:15.005Z,935.76
2022-07-28T03:04:15.541Z,935.73
2022-07-28T03:05:15.060Z,935.74
2022-07-28T03:06:15.045Z,935.73
2022-07-28T03:07:15.061Z,935.73
2022-07-28T03:08:15.075Z,935.77
2022-07-28T03:09:15.088Z,935.74
2022-07-28T03:10:15.102Z,935.76
2022-07-28T03:11:15.115Z,935.79
2022-07-28T03:12:15.132Z,935.80
2022-07-28T03:13:15.146Z,935.82
2022-07-28T03:14:15.654Z,935.79
2022-07-28T03:15:15.171Z,935.78
2022-07-28T03:16:15.270Z,935.83
2022-07-28T03:17:15.283Z,935.77
2022-07-28T03:18:15.215Z,935.80
2022-07-28T03:19:15.228Z,935.82
2022-07-28T03:20:15.242Z,935.82
2022-07-28T03:21:15.258Z,935.81
2022-07-28T03:22:15.270Z,935.80
2022-07-28T03:23:15.288Z,935.75
2022-07-28T03:24:15.665Z,935.80
2022-07-28T03:25:15.314Z,935.77
2022-07-28T03:26:15.328Z,935.79
2022-07-28T03:27:15.341Z,935.77
2022-07-28T03:28:15.355Z,935.78
2022-07-28T03:29:15.367Z,935.79
2022-07-28T03:30:15.382Z,935.76
2022-07-28T03:31:15.482Z,935.75
2022-07-28T03:32:15.411Z,935.78
2022-07-28T03:33:15.425Z,935.76
2022-07-28T03:34:15.814Z,935.72
2022-07-28T03:35:15.454Z,935.71
2022-07-28T03:36:15.490Z,935.69
2022-07-28T03:37:15.483Z,935.69
2022-07-28T03:38:15.644Z,935.66
2022-07-28T03:39:15.511Z,935.67
2022-07-28T03:40:15.523Z,935.70
2022-07-28T03:41:15.538Z,935.67
2022-07-28T03:42:15.552Z,935.71
2022-07-28T03:43:15.567Z,935.70
2022-07-28T03:44:17.705Z,935.62
2022-07-28T03:45:15.592Z,935.66
2022-07-28T03:46:15.658Z,935.67
2022-07-28T03:47:15.619Z,935.68
2022-07-28T03:48:15.637Z,935.63
2022-07-28T03:49:15.675Z,935.60
2022-07-28T03:50:15.663Z,935.61
2022-07-28T03:51:15.677Z,935.59
2022-07-28T03:52:15.691Z,935.60
2022-07-28T03:53:15.704Z,935.62
2022-07-28T03:54:16.193Z,935.60
2022-07-28T03:55:15.732Z,935.61
2022-07-28T03:56:15.748Z,935.56
2022-07-28T03:57:15.761Z,935.59
2022-07-28T03:58:15.776Z,935.54
2022-07-28T03:59:15.812Z,935.56
2022-07-28T04:00:15.806Z,935.54
2022-07-28T04:01:15.865Z,935.57
2022-07-28T04:02:15.898Z,935.54
2022-07-28T04:03:35.788Z,935.49
2022-07-28T04:04:16.343Z,935.52
2022-07-28T04:05:15.872Z,935.50
2022-07-28T04:06:16.015Z,935.51
2022-07-28T04:07:15.900Z,935.51
2022-07-28T04:08:15.915Z,935.48
2022-07-28T04:09:15.935Z,935.48
2022-07-28T04:10:15.945Z,935.46
2022-07-28T04:11:15.957Z,935.42
2022-07-28T04:12:15.971Z,935.40
2022-07-28T04:13:15.984Z,935.36
2022-07-28T04:14:17.022Z,935.38
2022-07-28T04:15:16.011Z,935.38
2022-07-28T04:16:16.116Z,935.34
2022-07-28T04:17:16.041Z,935.33
2022-07-28T04:18:16.053Z,935.39
2022-07-28T04:19:16.067Z,935.40
2022-07-28T04:20:16.081Z,935.35
2022-07-28T04:21:16.095Z,935.33
2022-07-28T04:22:16.109Z,935.32
2022-07-28T04:23:16.124Z,935.30
2022-07-28T04:24:16.492Z,935.27
2022-07-28T04:25:16.151Z,935.30
2022-07-28T04:26:16.165Z,935.27
2022-07-28T04:27:16.178Z,935.27
2022-07-28T04:28:16.195Z,935.25
2022-07-28T04:29:16.207Z,935.20
2022-07-28T04:30:16.229Z,935.22
2022-07-28T04:31:16.262Z,935.21
2022-07-28T04:32:16.250Z,935.21
2022-07-28T04:33:16.273Z,935.16
2022-07-28T04:34:16.978Z,935.13
2022-07-28T04:35:17.706Z,935.14
2022-07-28T04:36:16.307Z,935.10
2022-07-28T04:37:16.319Z,935.06
2022-07-28T04:38:16.332Z,935.07
2022-07-28T04:39:16.345Z,935.05
2022-07-28T04:40:16.360Z,935.02
2022-07-28T04:41:16.374Z,935.00
2022-07-28T04:42:16.397Z,935.02
2022-07-28T04:43:16.411Z,935.00
2022-07-28T04:44:16.690Z,934.98
2022-07-28T04:45:16.431Z,934.98
2022-07-28T04:46:16.456Z,934.92
2022-07-28T04:47:16.459Z,934.95
2022-07-28T04:48:16.472Z,934.88
2022-07-28T04:49:16.538Z,934.88
2022-07-28T04:50:16.497Z,934.84
2022-07-28T04:51:16.511Z,934.86
2022-07-28T04:52:16.527Z,934.90
2022-07-28T04:53:16.540Z,934.88
2022-07-28T04:54:16.988Z,934.86
2022-07-28T04:55:16.571Z,934.83
2022-07-28T04:56:16.585Z,934.84
2022-07-28T04:57:16.597Z,934.79
2022-07-28T04:58:16.643Z,934.75
2022-07-28T04:59:16.625Z,934.75
2022-07-28T05:00:16.642Z,934.75
2022-07-28T05:01:16.705Z,934.71
2022-07-28T05:02:16.666Z,934.77
2022-07-28T05:03:16.679Z,934.78
2022-07-28T05:04:17.231Z,934.81
2022-07-28T05:05:16.752Z,934.76
2022-07-28T05:06:16.722Z,934.79
2022-07-28T05:07:16.735Z,934.79
2022-07-28T05:08:16.752Z,934.78
2022-07-28T05:09:16.763Z,934.73
2022-07-28T05:10:16.777Z,934.79
2022-07-28T05:11:16.792Z,934.77
2022-07-28T05:12:16.804Z,934.76
2022-07-28T05:13:16.819Z,934.79
2022-07-28T05:14:17.060Z,934.77
2022-07-28T05:15:16.847Z,934.75
2022-07-28T05:16:16.914Z,934.73
2022-07-28T05:17:16.875Z,934.68
2022-07-28T05:18:16.889Z,934.67
2022-07-28T05:19:16.903Z,934.64
2022-07-28T05:20:17.016Z,934.62
2022-07-28T05:21:16.932Z,934.62
2022-07-28T05:22:16.943Z,934.59
2022-07-28T05:23:16.957Z,934.59
2022-07-28T05:24:17.569Z,934.59
2022-07-28T05:25:16.989Z,934.60
2022-07-28T05:26:16.999Z,934.53
2022-07-28T05:27:17.013Z,934.54
2022-07-28T05:28:17.184Z,934.52
2022-07-28T05:29:17.040Z,934.53
2022-07-28T05:30:17.053Z,934.52
2022-07-28T05:31:17.121Z,934.49
2022-07-28T05:32:18.042Z,934.50
2022-07-28T05:33:17.097Z,934.52
2022-07-28T05:34:17.449Z,934.50
2022-07-28T05:35:17.135Z,934.44
2022-07-28T05:36:17.138Z,934.45
2022-07-28T05:37:17.153Z,934.42
2022-07-28T05:38:17.165Z,934.42
2022-07-28T05:39:17.177Z,934.44
2022-07-28T05:40:17.191Z,934.42
2022-07-28T05:41:17.204Z,934.41
2022-07-28T05:42:17.218Z,934.37
2022-07-28T05:43:17.235Z,934.36
2022-07-28T05:44:17.431Z,934.37
2022-07-28T05:45:17.770Z,934.39
2022-07-28T05:46:17.368Z,934.39
2022-07-28T05:47:17.289Z,934.41
2022-07-28T05:48:17.301Z,934.43
2022-07-28T05:49:17.425Z,934.43
2022-07-28T05:50:17.606Z,934.46
2022-07-28T05:51:17.342Z,934.43
2022-07-28T05:52:17.359Z,934.42
2022-07-28T05:53:17.369Z,934.46
2022-07-28T05:54:17.585Z,934.43
2022-07-28T05:55:17.398Z,934.40
2022-07-28T05:56:17.410Z,934.37
2022-07-28T05:57:17.425Z,934.36
2022-07-28T05:58:17.439Z,934.38
2022-07-28T05:59:17.456Z,934.42
2022-07-28T06:00:17.467Z,934.40
2022-07-28T06:01:17.576Z,934.43
2022-07-28T06:02:17.555Z,934.41
2022-07-28T06:03:17.508Z,934.38
2022-07-28T06:04:26.167Z,934.37
2022-07-28T06:05:17.537Z,934.33
2022-07-28T06:06:17.562Z,934.38
2022-07-28T06:07:17.562Z,934.36
2022-07-28T06:08:17.575Z,934.39
2022-07-28T06:09:17.594Z,934.42
2022-07-28T06:10:17.609Z,934.41
2022-07-28T06:11:22.004Z,934.37
2022-07-28T06:12:17.631Z,934.39
2022-07-28T06:13:17.646Z,934.39
2022-07-28T06:14:18.118Z,934.39
2022-07-28T06:15:17.672Z,934.41
2022-07-28T06:16:17.712Z,934.37
2022-07-28T06:17:17.700Z,934.43
2022-07-28T06:18:17.712Z,934.41
2022-07-28T06:19:17.755Z,934.41
2022-07-28T06:20:17.745Z,934.44
2022-07-28T06:21:17.754Z,934.44
2022-07-28T06:22:17.769Z,934.43
2022-07-28T06:23:17.785Z,934.41
2022-07-28T06:24:18.121Z,934.38
2022-07-28T06:25:17.809Z,934.39
2022-07-28T06:26:17.824Z,934.41
2022-07-28T06:27:17.880Z,934.38
2022-07-28T06:28:17.850Z,934.38
2022-07-28T06:29:17.864Z,934.36
2022-07-28T06:30:17.878Z,934.29
2022-07-28T06:31:17.906Z,934.33
2022-07-28T06:32:17.905Z,934.33
2022-07-28T06:33:17.918Z,934.34
2022-07-28T06:34:17.952Z,934.32
2022-07-28T06:35:17.956Z,934.35
2022-07-28T06:36:17.959Z,934.34
2022-07-28T06:37:17.974Z,934.39
2022-07-28T06:38:17.988Z,934.40
2022-07-28T06:39:18.002Z,934.38
2022-07-28T06:40:18.017Z,934.38
2022-07-28T06:41:18.033Z,934.36
2022-07-28T06:42:18.041Z,934.36
2022-07-28T06:43:18.055Z,934.38
2022-07-28T06:44:18.368Z,934.36
2022-07-28T06:45:20.679Z,934.33
2022-07-28T06:46:18.187Z,934.37
2022-07-28T06:47:18.200Z,934.40
2022-07-28T06:48:18.151Z,934.37
2022-07-28T06:49:18.933Z,934.40
2022-07-28T06:50:25.539Z,934.34
2022-07-28T06:51:18.171Z,934.35
2022-07-28T06:52:18.177Z,934.37
2022-07-28T06:53:18.194Z,934.37
2022-07-28T06:54:18.987Z,934.37
2022-07-28T06:55:18.219Z,934.37
2022-07-28T06:56:18.232Z,934.30
2022-07-28T06:57:18.247Z,934.31
2022-07-28T06:58:18.261Z,934.29
2022-07-28T06:59:18.274Z,934.30
2022-07-28T07:00:18.287Z,934.27
2022-07-28T07:01:18.352Z,934.24
2022-07-28T07:02:18.313Z,934.28
2022-07-28T07:03:18.327Z,934.26
2022-07-28T07:04:18.975Z,934.29
2022-07-28T07:05:18.355Z,934.29
2022-07-28T07:06:18.369Z,934.32
2022-07-28T07:07:18.383Z,934.32
2022-07-28T07:08:18.398Z,934.32
2022-07-28T07:09:18.410Z,934.35
2022-07-28T07:10:18.423Z,934.35
2022-07-28T07:11:18.436Z,934.35
2022-07-28T07:12:18.451Z,934.29
2022-07-28T07:13:18.464Z,934.28
2022-07-28T07:14:18.991Z,934.24
2022-07-28T07:15:18.493Z,934.26
2022-07-28T07:16:18.574Z,934.28
2022-07-28T07:17:18.519Z,934.27
2022-07-28T07:18:18.533Z,934.30
2022-07-28T07:19:18.546Z,934.31
2022-07-28T07:20:18.559Z,934.31
2022-07-28T07:21:18.573Z,934.26
2022-07-28T07:22:18.587Z,934.23
2022-07-28T07:23:18.602Z,934.31
2022-07-28T07:24:18.614Z,934.32
2022-07-28T07:25:18.658Z,934.28
2022-07-28T07:26:18.659Z,934.26
2022-07-28T07:27:18.664Z,934.24
2022-07-28T07:28:18.667Z,934.22
2022-07-28T07:29:18.682Z,934.18
2022-07-28T07:30:18.695Z,934.22
2022-07-28T07:31:18.749Z,934.20
2022-07-28T07:32:18.726Z,934.18
2022-07-28T07:33:18.737Z,934.23
2022-07-28T07:34:18.748Z,934.28
2022-07-28T07:35:18.764Z,934.24
2022-07-28T07:36:18.778Z,934.18
2022-07-28T07:37:18.791Z,934.21
2022-07-28T07:38:18.803Z,934.20
2022-07-28T07:39:18.820Z,934.20
2022-07-28T07:40:18.831Z,934.22
2022-07-28T07:41:18.843Z,934.25
2022-07-28T07:42:18.858Z,934.27
2022-07-28T07:43:18.874Z,934.24
2022-07-28T07:44:18.885Z,934.29
2022-07-28T07:45:18.900Z,934.28
2022-07-28T07:46:18.954Z,934.26
2022-07-28T07:47:18.929Z,934.23
2022-07-28T07:48:18.937Z,934.26
2022-07-28T07:49:19.048Z,934.22
2022-07-28T07:50:18.966Z,934.25
2022-07-28T07:51:18.981Z,934.20
2022-07-28T07:52:18.995Z,934.19
2022-07-28T07:53:19.006Z,934.19
2022-07-28T07:54:19.020Z,934.18
2022-07-28T07:55:19.032Z,934.23
2022-07-28T07:56:19.048Z,934.20
2022-07-28T07:57:19.063Z,934.23
2022-07-28T07:58:19.074Z,934.24
2022-07-28T07:59:19.091Z,934.28
2022-07-28T08:00:28.659Z,934.27
2022-07-28T08:01:19.167Z,934.26
2022-07-28T08:02:19.131Z,934.27
2022-07-28T08:03:22.314Z,934.28
2022-07-28T08:04:19.341Z,934.28
2022-07-28T08:05:19.170Z,934.29
2022-07-28T08:06:26.377Z,934.25
2022-07-28T08:07:20.539Z,934.26
2022-07-28T08:08:19.210Z,934.27
2022-07-28T08:09:19.221Z,934.28
2022-07-28T08:10:19.236Z,934.27
2022-07-28T08:11:19.250Z,934.24
2022-07-28T08:12:24.766Z,934.22
2022-07-28T08:13:19.278Z,934.24
2022-07-28T08:14:19.400Z,934.23
2022-07-28T08:15:19.303Z,934.23
2022-07-28T08:16:19.372Z,934.22
2022-07-28T08:17:23.638Z,934.28
2022-07-28T08:18:19.344Z,934.33
2022-07-28T08:19:21.478Z,934.33
2022-07-28T08:20:19.376Z,934.31
2022-07-28T08:21:19.383Z,934.27
2022-07-28T08:22:19.401Z,934.25
2022-07-28T08:23:24.314Z,934.28
2022-07-28T08:24:33.705Z,934.27
2022-07-28T08:25:19.440Z,934.29
2022-07-28T08:26:19.453Z,934.33
2022-07-28T08:27:19.472Z,934.25
2022-07-28T08:28:19.479Z,934.27
2022-07-28T08:29:19.492Z,934.25
2022-07-28T08:30:23.099Z,934.27
2022-07-28T08:31:19.561Z,934.26
2022-07-28T08:32:19.532Z,934.26
2022-07-28T08:33:19.547Z,934.26
2022-07-28T08:34:26.483Z,934.29
2022-07-28T08:35:32.960Z,934.25
2022-07-28T08:36:19.586Z,934.27
2022-07-28T08:37:19.601Z,934.24
2022-07-28T08:38:19.612Z,934.20
2022-07-28T08:39:19.628Z,934.25
2022-07-28T08:40:22.428Z,934.22
2022-07-28T08:41:19.654Z,934.22
2022-07-28T08:42:19.666Z,934.24
2022-07-28T08:43:19.681Z,934.25
2022-07-28T08:44:19.693Z,934.28
2022-07-28T08:45:19.707Z,934.28
2022-07-28T08:46:19.786Z,934.29
2022-07-28T08:47:19.733Z,934.26
2022-07-28T08:48:19.755Z,934.24
2022-07-28T08:49:19.859Z,934.25
2022-07-28T08:50:19.783Z,934.18
2022-07-28T08:51:19.787Z,934.15
2022-07-28T08:52:19.801Z,934.14
2022-07-28T08:53:19.815Z,934.11
2022-07-28T08:54:19.829Z,934.17
2022-07-28T08:55:19.936Z,934.19
2022-07-28T08:56:19.854Z,934.20
2022-07-28T08:57:19.869Z,934.22
2022-07-28T08:58:19.880Z,934.23
2022-07-28T08:59:19.895Z,934.23
2022-07-28T09:00:19.956Z,934.23
2022-07-28T09:01:19.996Z,934.19
2022-07-28T09:02:20.114Z,934.23
2022-07-28T09:03:20.015Z,934.21
2022-07-28T09:04:19.961Z,934.21
2022-07-28T09:05:19.974Z,934.20
2022-07-28T09:06:19.985Z,934.22
2022-07-28T09:07:20.002Z,934.18
2022-07-28T09:08:20.016Z,934.19
2022-07-28T09:09:20.028Z,934.25
2022-07-28T09:10:20.088Z,934.25
2022-07-28T09:11:20.053Z,934.24
2022-07-28T09:12:20.876Z,934.19
2022-07-28T09:13:20.083Z,934.21
2022-07-28T09:14:20.096Z,934.23
2022-07-28T09:15:20.111Z,934.20
2022-07-28T09:16:20.252Z,934.20
2022-07-28T09:17:20.135Z,934.16
2022-07-28T09:18:20.148Z,934.21
2022-07-28T09:19:20.160Z,934.21
2022-07-28T09:20:20.269Z,934.23
2022-07-28T09:21:20.189Z,934.27
2022-07-28T09:22:20.200Z,934.27
2022-07-28T09:23:42.837Z,934.26
2022-07-28T09:24:20.228Z,934.26
2022-07-28T09:25:20.243Z,934.29
2022-07-28T09:26:20.456Z,934.29
2022-07-28T09:27:20.267Z,934.33
2022-07-28T09:28:20.408Z,934.37
2022-07-28T09:29:20.294Z,934.34
2022-07-28T09:30:20.307Z,934.36
2022-07-28T09:31:20.341Z,934.35
2022-07-28T09:32:20.334Z,934.33
2022-07-28T09:33:41.388Z,934.30
2022-07-28T09:34:20.365Z,934.29
2022-07-28T09:35:20.377Z,934.26
2022-07-28T09:36:20.390Z,934.28
2022-07-28T09:37:24.844Z,934.33
2022-07-28T09:38:20.418Z,934.33
2022-07-28T09:39:20.426Z,934.35
2022-07-28T09:40:22.486Z,934.38
2022-07-28T09:41:20.456Z,934.39
2022-07-28T09:42:20.467Z,934.36
2022-07-28T09:43:20.481Z,934.40
2022-07-28T09:44:20.507Z,934.41
2022-07-28T09:45:23.307Z,934.39
2022-07-28T09:46:20.787Z,934.40
2022-07-28T09:47:20.689Z,934.43
2022-07-28T09:48:20.775Z,934.44
2022-07-28T09:49:26.463Z,934.44
2022-07-28T09:50:20.574Z,934.46
2022-07-28T09:51:20.588Z,934.48
2022-07-28T09:52:20.600Z,934.45
2022-07-28T09:53:20.614Z,934.41
2022-07-28T09:54:20.665Z,934.41
2022-07-28T09:55:20.641Z,934.46
2022-07-28T09:56:20.656Z,934.43
2022-07-28T09:57:20.666Z,934.45
2022-07-28T09:58:20.681Z,934.44
2022-07-28T09:59:20.928Z,934.43
2022-07-28T10:00:20.709Z,934.41
2022-07-28T10:01:20.814Z,934.46
2022-07-28T10:02:20.877Z,934.46
2022-07-28T10:03:20.822Z,934.50
2022-07-28T10:04:21.059Z,934.47
2022-07-28T10:05:20.773Z,934.52
2022-07-28T10:06:20.784Z,934.51
2022-07-28T10:07:20.798Z,934.57
2022-07-28T10:08:21.218Z,934.57
2022-07-28T10:09:20.826Z,934.56
2022-07-28T10:10:20.840Z,934.58
2022-07-28T10:11:20.850Z,934.57
2022-07-28T10:12:21.271Z,934.61
2022-07-28T10:13:20.879Z,934.61
2022-07-28T10:14:20.892Z,934.62
2022-07-28T10:15:20.903Z,934.62
2022-07-28T10:16:21.007Z,934.60
2022-07-28T10:17:20.935Z,934.61
2022-07-28T10:18:20.944Z,934.67
2022-07-28T10:19:20.959Z,934.63
2022-07-28T10:20:20.973Z,934.66
2022-07-28T10:21:21.004Z,934.67
2022-07-28T10:22:21.006Z,934.70
2022-07-28T10:23:21.009Z,934.68
2022-07-28T10:24:21.024Z,934.73
2022-07-28T10:25:21.036Z,934.71
2022-07-28T10:26:21.049Z,934.71
2022-07-28T10:27:21.063Z,934.73
2022-07-28T10:28:21.075Z,934.67
2022-07-28T10:29:21.090Z,934.69
2022-07-28T10:30:21.103Z,934.67
2022-07-28T10:31:21.238Z,934.71
2022-07-28T10:32:21.130Z,934.63
2022-07-28T10:33:21.144Z,934.63
2022-07-28T10:34:25.013Z,934.66
2022-07-28T10:35:21.571Z,934.64
2022-07-28T10:36:21.181Z,934.66
2022-07-28T10:37:21.198Z,934.67
2022-07-28T10:38:21.209Z,934.66
2022-07-28T10:39:21.224Z,934.68
2022-07-28T10:40:21.457Z,934.63
2022-07-28T10:41:21.249Z,934.65
2022-07-28T10:42:21.295Z,934.65
2022-07-28T10:43:21.278Z,934.63
2022-07-28T10:44:21.289Z,934.65
2022-07-28T10:45:21.302Z,934.62
2022-07-28T10:46:21.387Z,934.64
2022-07-28T10:47:21.434Z,934.63
2022-07-28T10:48:21.358Z,934.62
2022-07-28T10:49:21.561Z,934.67
2022-07-28T10:50:21.366Z,934.63
2022-07-28T10:51:21.390Z,934.65
2022-07-28T10:53:21.413Z,934.67
2022-07-28T10:54:25.156Z,934.67
2022-07-28T10:55:21.437Z,934.67
2022-07-28T10:56:21.446Z,934.63
2022-07-28T10:57:21.467Z,934.66
2022-07-28T10:58:25.144Z,934.65
2022-07-28T10:59:21.486Z,934.67
2022-07-28T11:00:26.538Z,934.63
2022-07-28T11:01:46.299Z,934.65
2022-07-28T11:02:21.637Z,934.66
2022-07-28T11:03:21.694Z,934.66
2022-07-28T11:04:25.116Z,934.64
2022-07-28T11:05:21.564Z,934.60
2022-07-28T11:06:21.578Z,934.62
2022-07-28T11:07:21.590Z,934.66
2022-07-28T11:08:21.605Z,934.68
2022-07-28T11:09:21.618Z,934.65
2022-07-28T11:10:21.635Z,934.65
2022-07-28T11:11:21.643Z,934.66
2022-07-28T11:12:21.655Z,934.67
2022-07-28T11:13:21.670Z,934.65
2022-07-28T11:14:21.681Z,934.63
2022-07-28T11:15:21.695Z,934.67
2022-07-28T11:16:21.798Z,934.63
2022-07-28T11:17:24.641Z,934.66
2022-07-28T11:18:21.736Z,934.62
2022-07-28T11:19:36.707Z,934.67
2022-07-28T11:20:29.927Z,934.71
2022-07-28T11:21:21.776Z,934.67
2022-07-28T11:22:22.299Z,934.70
2022-07-28T11:23:21.804Z,934.72
2022-07-28T11:24:21.817Z,934.75
2022-07-28T11:25:22.946Z,934.76
2022-07-28T11:26:21.939Z,934.76
2022-07-28T11:27:21.859Z,934.78
2022-07-28T11:28:21.868Z,934.81
2022-07-28T11:29:22.085Z,934.83
2022-07-28T11:30:21.915Z,934.82
2022-07-28T11:31:21.984Z,934.83
2022-07-28T11:32:21.918Z,934.84
2022-07-28T11:33:21.931Z,934.84
2022-07-28T11:34:21.948Z,934.85
2022-07-28T11:35:21.958Z,934.83
2022-07-28T11:36:21.972Z,934.85
2022-07-28T11:37:21.987Z,934.87
2022-07-28T11:38:21.996Z,934.84
2022-07-28T11:39:22.015Z,934.81
2022-07-28T11:40:22.025Z,934.84
2022-07-28T11:41:22.039Z,934.84
2022-07-28T11:42:22.050Z,934.83
2022-07-28T11:43:26.633Z,934.84
2022-07-28T11:44:22.077Z,934.84
2022-07-28T11:45:22.114Z,934.91
2022-07-28T11:46:22.763Z,934.91
2022-07-28T11:47:22.115Z,934.90
2022-07-28T11:48:22.129Z,934.95
2022-07-28T11:49:22.265Z,934.91
2022-07-28T11:50:22.154Z,934.92
2022-07-28T11:51:22.170Z,934.90
2022-07-28T11:52:22.644Z,934.95
2022-07-28T11:53:22.198Z,934.91
2022-07-28T11:54:22.207Z,934.91
2022-07-28T11:55:22.221Z,934.88
2022-07-28T11:56:22.444Z,934.90
2022-07-28T11:57:22.247Z,934.89
2022-07-28T11:58:22.260Z,934.87
2022-07-28T11:59:22.273Z,934.90
2022-07-28T12:00:22.694Z,934.91
2022-07-28T12:01:22.301Z,934.91
2022-07-28T12:02:22.361Z,934.91
2022-07-28T12:03:26.096Z,934.95
2022-07-28T12:04:22.340Z,934.99
2022-07-28T12:05:22.759Z,934.97
2022-07-28T12:06:28.815Z,934.98
2022-07-28T12:07:22.380Z,934.99
2022-07-28T12:08:22.395Z,934.97
2022-07-28T12:09:27.113Z,934.96
2022-07-28T12:10:43.995Z,934.98
2022-07-28T12:11:22.431Z,934.99
2022-07-28T12:12:22.447Z,934.95
2022-07-28T12:13:22.461Z,934.98
2022-07-28T12:14:22.480Z,934.98
2022-07-28T12:15:22.484Z,935.01
2022-07-28T12:16:22.524Z,935.04
2022-07-28T12:17:22.511Z,935.03
2022-07-28T12:18:25.036Z,935.01
2022-07-28T12:19:22.544Z,935.03
2022-07-28T12:20:22.553Z,935.05
2022-07-28T12:21:22.564Z,935.06
2022-07-28T12:22:22.579Z,935.03
2022-07-28T12:23:22.792Z,935.04
2022-07-28T12:24:22.860Z,935.05
2022-07-28T12:25:22.617Z,935.08
2022-07-28T12:26:26.274Z,935.02
2022-07-28T12:27:25.058Z,935.02
2022-07-28T12:28:22.658Z,934.97
2022-07-28T12:29:22.668Z,934.99